sensor_id;sensor_type;location;lat;lon;timestamp;temperature;humidity
16785;DHT22;8509;52.178;5.404;2024-02-21T00:00:55;9.90;99.90
16785;DHT22;8509;52.178;5.404;2024-02-21T00:03:21;9.90;99.90
16785;DHT22;8509;52.178;5.404;2024-02-21T00:05:47;9.90;99.90
16785;DHT22;8509;52.178;5.404;2024-02-21T00:08:12;9.80;99.90
16785;DHT22;8509;52.178;5.404;2024-02-21T00:10:38;9.90;99.90
16785;DHT22;8509;52.178;5.404;2024-02-21T00:13:04;9.80;99.90
16785;DHT22;8509;52.178;5.404;2024-02-21T00:15:30;9.80;99.90
16785;DHT22;8509;52.178;5.404;2024-02-21T00:17:58;9.90;99.90
16785;DHT22;8509;52.178;5.404;2024-02-21T00:20:24;9.80;99.90
16785;DHT22;8509;52.178;5.404;2024-02-21T00:22:51;9.80;99.90
16785;DHT22;8509;52.178;5.404;2024-02-21T00:25:17;9.80;99.90
16785;DHT22;8509;52.178;5.404;2024-02-21T00:27:43;9.80;99.90
16785;DHT22;8509;52.178;5.404;2024-02-21T00:30:09;9.80;99.90
16785;DHT22;8509;52.178;5.404;2024-02-21T00:32:35;9.80;99.90
16785;DHT22;8509;52.178;5.404;2024-02-21T00:35:01;9.90;99.90
16785;DHT22;8509;52.178;5.404;2024-02-21T00:37:27;9.70;99.90
16785;DHT22;8509;52.178;5.404;2024-02-21T00:39:54;9.90;99.90
16785;DHT22;8509;52.178;5.404;2024-02-21T00:42:19;9.90;99.90
16785;DHT22;8509;52.178;5.404;2024-02-21T00:44:45;9.90;99.90
16785;DHT22;8509;52.178;5.404;2024-02-21T00:47:11;9.90;99.90
16785;DHT22;8509;52.178;5.404;2024-02-21T00:49:36;9.80;99.90
16785;DHT22;8509;52.178;5.404;2024-02-21T00:52:02;9.80;99.90
16785;DHT22;8509;52.178;5.404;2024-02-21T00:54:28;9.80;99.90
16785;DHT22;8509;52.178;5.404;2024-02-21T00:56:54;9.90;99.90
16785;DHT22;8509;52.178;5.404;2024-02-21T00:59:20;9.90;99.90
16785;DHT22;8509;52.178;5.404;2024-02-21T01:01:46;9.90;99.90
16785;DHT22;8509;52.178;5.404;2024-02-21T01:04:12;9.90;99.90
16785;DHT22;8509;52.178;5.404;2024-02-21T01:06:38;10.00;99.90
16785;DHT22;8509;52.178;5.404;2024-02-21T01:09:03;10.00;99.90
16785;DHT22;8509;52.178;5.404;2024-02-21T01:11:29;10.00;99.90
16785;DHT22;8509;52.178;5.404;2024-02-21T01:13:55;10.00;99.90
16785;DHT22;8509;52.178;5.404;2024-02-21T01:16:21;10.00;99.90
16785;DHT22;8509;52.178;5.404;2024-02-21T01:18:47;9.90;99.90
16785;DHT22;8509;52.178;5.404;2024-02-21T01:21:12;10.00;99.90
16785;DHT22;8509;52.178;5.404;2024-02-21T01:23:38;9.90;99.90
16785;DHT22;8509;52.178;5.404;2024-02-21T01:26:04;9.90;99.90
16785;DHT22;8509;52.178;5.404;2024-02-21T01:28:30;9.90;99.90
16785;DHT22;8509;52.178;5.404;2024-02-21T01:30:59;9.80;99.90
16785;DHT22;8509;52.178;5.404;2024-02-21T01:33:24;9.90;99.90
16785;DHT22;8509;52.178;5.404;2024-02-21T01:35:50;10.00;99.90
16785;DHT22;8509;52.178;5.404;2024-02-21T01:38:16;10.10;99.90
16785;DHT22;8509;52.178;5.404;2024-02-21T01:40:42;10.00;99.90
16785;DHT22;8509;52.178;5.404;2024-02-21T01:43:19;10.00;99.90
16785;DHT22;8509;52.178;5.404;2024-02-21T01:45:52;9.90;99.90
16785;DHT22;8509;52.178;5.404;2024-02-21T01:48:19;10.10;99.90
16785;DHT22;8509;52.178;5.404;2024-02-21T01:50:46;10.00;99.90
16785;DHT22;8509;52.178;5.404;2024-02-21T01:53:14;10.00;99.90
16785;DHT22;8509;52.178;5.404;2024-02-21T01:55:45;10.00;99.90
16785;DHT22;8509;52.178;5.404;2024-02-21T01:58:13;10.00;99.90
16785;DHT22;8509;52.178;5.404;2024-02-21T02:00:44;10.00;99.90
16785;DHT22;8509;52.178;5.404;2024-02-21T02:03:11;10.00;99.90
16785;DHT22;8509;52.178;5.404;2024-02-21T02:05:48;9.90;99.90
16785;DHT22;8509;52.178;5.404;2024-02-21T02:08:16;10.00;99.90
16785;DHT22;8509;52.178;5.404;2024-02-21T02:10:42;10.00;99.90
16785;DHT22;8509;52.178;5.404;2024-02-21T02:13:08;10.10;99.90
16785;DHT22;8509;52.178;5.404;2024-02-21T02:15:48;10.00;99.90
16785;DHT22;8509;52.178;5.404;2024-02-21T02:18:16;10.00;99.90
16785;DHT22;8509;52.178;5.404;2024-02-21T02:20:43;10.00;99.90
16785;DHT22;8509;52.178;5.404;2024-02-21T02:23:31;9.90;99.90
16785;DHT22;8509;52.178;5.404;2024-02-21T02:25:57;10.00;99.90
16785;DHT22;8509;52.178;5.404;2024-02-21T02:28:25;10.00;99.90
16785;DHT22;8509;52.178;5.404;2024-02-21T02:30:50;10.00;99.90
16785;DHT22;8509;52.178;5.404;2024-02-21T02:33:16;9.90;99.90
16785;DHT22;8509;52.178;5.404;2024-02-21T02:35:48;10.10;99.90
16785;DHT22;8509;52.178;5.404;2024-02-21T02:38:15;10.00;99.90
16785;DHT22;8509;52.178;5.404;2024-02-21T02:40:41;10.00;99.90
16785;DHT22;8509;52.178;5.404;2024-02-21T02:43:08;10.00;99.90
16785;DHT22;8509;52.178;5.404;2024-02-21T02:45:34;10.00;99.90
16785;DHT22;8509;52.178;5.404;2024-02-21T02:48:00;10.00;99.90
16785;DHT22;8509;52.178;5.404;2024-02-21T02:50:26;10.00;99.90
16785;DHT22;8509;52.178;5.404;2024-02-21T02:52:53;9.90;99.90
16785;DHT22;8509;52.178;5.404;2024-02-21T02:55:19;10.00;99.90
16785;DHT22;8509;52.178;5.404;2024-02-21T02:57:45;10.00;99.90
16785;DHT22;8509;52.178;5.404;2024-02-21T03:00:11;10.00;99.90
16785;DHT22;8509;52.178;5.404;2024-02-21T03:02:39;10.00;99.90
16785;DHT22;8509;52.178;5.404;2024-02-21T03:05:18;10.00;99.90
16785;DHT22;8509;52.178;5.404;2024-02-21T03:07:45;10.00;99.90
16785;DHT22;8509;52.178;5.404;2024-02-21T03:10:11;10.00;99.90
16785;DHT22;8509;52.178;5.404;2024-02-21T03:12:37;10.00;99.90
16785;DHT22;8509;52.178;5.404;2024-02-21T03:15:03;10.10;99.90
16785;DHT22;8509;52.178;5.404;2024-02-21T03:17:30;10.00;99.90
16785;DHT22;8509;52.178;5.404;2024-02-21T03:19:57;10.00;99.90
16785;DHT22;8509;52.178;5.404;2024-02-21T03:22:22;10.10;99.90
16785;DHT22;8509;52.178;5.404;2024-02-21T03:24:48;10.10;99.90
16785;DHT22;8509;52.178;5.404;2024-02-21T03:27:14;10.00;99.90
16785;DHT22;8509;52.178;5.404;2024-02-21T03:29:40;10.00;99.90
16785;DHT22;8509;52.178;5.404;2024-02-21T03:32:06;10.10;99.90
16785;DHT22;8509;52.178;5.404;2024-02-21T03:34:31;10.00;99.90
16785;DHT22;8509;52.178;5.404;2024-02-21T03:36:57;10.00;99.90
16785;DHT22;8509;52.178;5.404;2024-02-21T03:39:23;10.10;99.90
16785;DHT22;8509;52.178;5.404;2024-02-21T03:41:50;9.90;99.90
16785;DHT22;8509;52.178;5.404;2024-02-21T03:44:16;10.10;99.90
16785;DHT22;8509;52.178;5.404;2024-02-21T03:46:42;10.10;99.90
16785;DHT22;8509;52.178;5.404;2024-02-21T03:49:08;9.90;99.90
16785;DHT22;8509;52.178;5.404;2024-02-21T03:51:33;10.10;99.90
16785;DHT22;8509;52.178;5.404;2024-02-21T03:53:59;10.10;99.90
16785;DHT22;8509;52.178;5.404;2024-02-21T03:56:25;10.10;99.90
16785;DHT22;8509;52.178;5.404;2024-02-21T03:58:50;10.10;99.90
16785;DHT22;8509;52.178;5.404;2024-02-21T04:01:18;10.00;99.90
16785;DHT22;8509;52.178;5.404;2024-02-21T04:03:45;10.10;99.90
16785;DHT22;8509;52.178;5.404;2024-02-21T04:06:10;10.10;99.90
16785;DHT22;8509;52.178;5.404;2024-02-21T04:08:36;10.10;99.90
16785;DHT22;8509;52.178;5.404;2024-02-21T04:11:02;10.10;99.90
16785;DHT22;8509;52.178;5.404;2024-02-21T04:13:27;10.00;99.90
16785;DHT22;8509;52.178;5.404;2024-02-21T04:15:53;10.00;99.90
16785;DHT22;8509;52.178;5.404;2024-02-21T04:18:19;10.00;99.90
16785;DHT22;8509;52.178;5.404;2024-02-21T04:20:45;10.00;99.90
16785;DHT22;8509;52.178;5.404;2024-02-21T04:23:10;10.00;99.90
16785;DHT22;8509;52.178;5.404;2024-02-21T04:25:36;10.00;99.90
16785;DHT22;8509;52.178;5.404;2024-02-21T04:28:02;10.00;99.90
16785;DHT22;8509;52.178;5.404;2024-02-21T04:30:28;10.00;99.90
16785;DHT22;8509;52.178;5.404;2024-02-21T04:32:54;10.00;99.90
16785;DHT22;8509;52.178;5.404;2024-02-21T04:35:20;10.00;99.90
16785;DHT22;8509;52.178;5.404;2024-02-21T04:37:48;10.00;99.90
16785;DHT22;8509;52.178;5.404;2024-02-21T04:40:14;10.00;99.90
16785;DHT22;8509;52.178;5.404;2024-02-21T04:42:40;10.00;99.90
16785;DHT22;8509;52.178;5.404;2024-02-21T04:45:06;9.90;99.90
16785;DHT22;8509;52.178;5.404;2024-02-21T04:47:32;9.90;99.90
16785;DHT22;8509;52.178;5.404;2024-02-21T04:49:58;9.90;99.90
16785;DHT22;8509;52.178;5.404;2024-02-21T04:52:23;9.90;99.90
16785;DHT22;8509;52.178;5.404;2024-02-21T04:54:49;9.80;99.90
16785;DHT22;8509;52.178;5.404;2024-02-21T04:57:15;9.90;99.90
16785;DHT22;8509;52.178;5.404;2024-02-21T04:59:45;9.90;99.90
16785;DHT22;8509;52.178;5.404;2024-02-21T05:02:12;9.90;99.90
16785;DHT22;8509;52.178;5.404;2024-02-21T05:04:38;9.90;99.90
16785;DHT22;8509;52.178;5.404;2024-02-21T05:07:04;9.90;99.90
16785;DHT22;8509;52.178;5.404;2024-02-21T05:09:30;9.90;99.90
16785;DHT22;8509;52.178;5.404;2024-02-21T05:11:56;9.90;99.90
16785;DHT22;8509;52.178;5.404;2024-02-21T05:14:27;9.80;99.90
16785;DHT22;8509;52.178;5.404;2024-02-21T05:16:53;9.90;99.90
16785;DHT22;8509;52.178;5.404;2024-02-21T05:19:19;9.80;99.90
16785;DHT22;8509;52.178;5.404;2024-02-21T05:21:45;9.80;99.90
16785;DHT22;8509;52.178;5.404;2024-02-21T05:24:10;9.90;99.90
16785;DHT22;8509;52.178;5.404;2024-02-21T05:26:38;9.90;99.90
16785;DHT22;8509;52.178;5.404;2024-02-21T05:29:03;9.90;99.90
16785;DHT22;8509;52.178;5.404;2024-02-21T05:34:32;9.90;99.90
16785;DHT22;8509;52.178;5.404;2024-02-21T05:36:58;9.90;99.90
16785;DHT22;8509;52.178;5.404;2024-02-21T05:39:25;9.80;99.90
16785;DHT22;8509;52.178;5.404;2024-02-21T05:41:51;9.80;99.90
16785;DHT22;8509;52.178;5.404;2024-02-21T05:44:18;9.80;99.90
16785;DHT22;8509;52.178;5.404;2024-02-21T05:46:45;9.80;99.90
16785;DHT22;8509;52.178;5.404;2024-02-21T05:49:11;9.80;99.90
16785;DHT22;8509;52.178;5.404;2024-02-21T05:51:37;9.80;99.90
16785;DHT22;8509;52.178;5.404;2024-02-21T05:54:02;9.80;99.90
16785;DHT22;8509;52.178;5.404;2024-02-21T05:56:28;9.80;99.90
16785;DHT22;8509;52.178;5.404;2024-02-21T05:58:54;9.80;99.90
16785;DHT22;8509;52.178;5.404;2024-02-21T06:01:20;9.80;99.90
16785;DHT22;8509;52.178;5.404;2024-02-21T06:03:47;9.90;99.90
16785;DHT22;8509;52.178;5.404;2024-02-21T06:06:14;9.90;99.90
16785;DHT22;8509;52.178;5.404;2024-02-21T06:08:40;9.90;99.90
16785;DHT22;8509;52.178;5.404;2024-02-21T06:11:06;9.90;99.90
16785;DHT22;8509;52.178;5.404;2024-02-21T06:13:32;9.90;99.90
16785;DHT22;8509;52.178;5.404;2024-02-21T06:15:57;9.90;99.90
16785;DHT22;8509;52.178;5.404;2024-02-21T06:18:23;9.90;99.90
16785;DHT22;8509;52.178;5.404;2024-02-21T06:20:49;9.90;99.90
16785;DHT22;8509;52.178;5.404;2024-02-21T06:23:18;9.90;99.90
16785;DHT22;8509;52.178;5.404;2024-02-21T06:25:45;9.80;99.90
16785;DHT22;8509;52.178;5.404;2024-02-21T06:28:13;9.80;99.90
16785;DHT22;8509;52.178;5.404;2024-02-21T06:30:40;9.90;99.90
16785;DHT22;8509;52.178;5.404;2024-02-21T06:33:05;9.80;99.90
16785;DHT22;8509;52.178;5.404;2024-02-21T06:35:34;9.80;99.90
16785;DHT22;8509;52.178;5.404;2024-02-21T06:38:00;9.90;99.90
16785;DHT22;8509;52.178;5.404;2024-02-21T06:40:25;9.90;99.90
16785;DHT22;8509;52.178;5.404;2024-02-21T06:42:52;9.80;99.90
16785;DHT22;8509;52.178;5.404;2024-02-21T06:45:17;9.80;99.90
16785;DHT22;8509;52.178;5.404;2024-02-21T06:47:43;9.80;99.90
16785;DHT22;8509;52.178;5.404;2024-02-21T06:50:09;9.90;99.90
16785;DHT22;8509;52.178;5.404;2024-02-21T06:52:36;9.90;99.90
16785;DHT22;8509;52.178;5.404;2024-02-21T06:55:02;9.90;99.90
16785;DHT22;8509;52.178;5.404;2024-02-21T06:57:29;9.90;99.90
16785;DHT22;8509;52.178;5.404;2024-02-21T06:59:55;9.90;99.90
16785;DHT22;8509;52.178;5.404;2024-02-21T07:02:20;9.80;99.90
16785;DHT22;8509;52.178;5.404;2024-02-21T07:04:47;9.80;99.90
16785;DHT22;8509;52.178;5.404;2024-02-21T07:07:13;9.80;99.90
16785;DHT22;8509;52.178;5.404;2024-02-21T07:09:39;9.80;99.90
16785;DHT22;8509;52.178;5.404;2024-02-21T07:12:05;9.80;99.90
16785;DHT22;8509;52.178;5.404;2024-02-21T07:14:36;9.80;99.90
16785;DHT22;8509;52.178;5.404;2024-02-21T07:17:01;9.80;99.90
16785;DHT22;8509;52.178;5.404;2024-02-21T07:19:30;9.90;99.90
16785;DHT22;8509;52.178;5.404;2024-02-21T07:21:56;9.90;99.90
16785;DHT22;8509;52.178;5.404;2024-02-21T07:24:22;9.80;99.90
16785;DHT22;8509;52.178;5.404;2024-02-21T07:26:47;9.80;99.90
16785;DHT22;8509;52.178;5.404;2024-02-21T07:29:13;9.90;99.90
16785;DHT22;8509;52.178;5.404;2024-02-21T07:31:42;9.80;99.90
16785;DHT22;8509;52.178;5.404;2024-02-21T07:34:09;9.80;99.90
16785;DHT22;8509;52.178;5.404;2024-02-21T07:36:35;9.90;99.90
16785;DHT22;8509;52.178;5.404;2024-02-21T07:39:00;9.90;99.90
16785;DHT22;8509;52.178;5.404;2024-02-21T07:41:26;9.80;99.90
16785;DHT22;8509;52.178;5.404;2024-02-21T07:43:52;9.80;99.90
16785;DHT22;8509;52.178;5.404;2024-02-21T07:46:20;9.90;99.90
16785;DHT22;8509;52.178;5.404;2024-02-21T07:48:46;9.90;99.90
16785;DHT22;8509;52.178;5.404;2024-02-21T07:51:13;9.90;99.90
16785;DHT22;8509;52.178;5.404;2024-02-21T07:53:41;9.90;99.90
16785;DHT22;8509;52.178;5.404;2024-02-21T07:56:13;9.90;99.90
16785;DHT22;8509;52.178;5.404;2024-02-21T07:58:40;10.00;99.90
16785;DHT22;8509;52.178;5.404;2024-02-21T08:01:06;10.00;99.90
16785;DHT22;8509;52.178;5.404;2024-02-21T08:03:32;10.10;99.90
16785;DHT22;8509;52.178;5.404;2024-02-21T08:05:58;9.90;99.90
16785;DHT22;8509;52.178;5.404;2024-02-21T08:08:24;10.10;99.90
16785;DHT22;8509;52.178;5.404;2024-02-21T08:10:50;10.10;99.90
16785;DHT22;8509;52.178;5.404;2024-02-21T08:13:17;10.10;99.90
16785;DHT22;8509;52.178;5.404;2024-02-21T08:15:43;10.30;99.90
16785;DHT22;8509;52.178;5.404;2024-02-21T08:18:09;10.20;99.90
16785;DHT22;8509;52.178;5.404;2024-02-21T08:20:35;10.20;99.90
16785;DHT22;8509;52.178;5.404;2024-02-21T08:23:01;10.30;99.90
16785;DHT22;8509;52.178;5.404;2024-02-21T08:25:27;10.20;99.90
16785;DHT22;8509;52.178;5.404;2024-02-21T08:27:58;10.30;99.90
16785;DHT22;8509;52.178;5.404;2024-02-21T08:30:26;10.30;99.90
16785;DHT22;8509;52.178;5.404;2024-02-21T08:32:51;10.30;99.90
16785;DHT22;8509;52.178;5.404;2024-02-21T08:35:19;10.40;99.90
16785;DHT22;8509;52.178;5.404;2024-02-21T08:37:49;10.40;99.90
16785;DHT22;8509;52.178;5.404;2024-02-21T08:40:15;10.50;99.90
16785;DHT22;8509;52.178;5.404;2024-02-21T08:42:45;10.60;99.90
16785;DHT22;8509;52.178;5.404;2024-02-21T08:45:10;10.50;99.90
16785;DHT22;8509;52.178;5.404;2024-02-21T08:47:39;10.50;99.90
16785;DHT22;8509;52.178;5.404;2024-02-21T08:50:05;10.60;99.90
16785;DHT22;8509;52.178;5.404;2024-02-21T08:52:31;10.60;99.90
16785;DHT22;8509;52.178;5.404;2024-02-21T08:54:57;10.60;99.90
16785;DHT22;8509;52.178;5.404;2024-02-21T08:57:23;10.70;99.90
16785;DHT22;8509;52.178;5.404;2024-02-21T08:59:48;10.70;99.90
16785;DHT22;8509;52.178;5.404;2024-02-21T09:02:17;10.70;99.90
16785;DHT22;8509;52.178;5.404;2024-02-21T09:04:44;10.90;99.90
16785;DHT22;8509;52.178;5.404;2024-02-21T09:07:10;11.00;99.90
16785;DHT22;8509;52.178;5.404;2024-02-21T09:09:36;11.00;99.90
16785;DHT22;8509;52.178;5.404;2024-02-21T09:12:05;10.90;99.90
16785;DHT22;8509;52.178;5.404;2024-02-21T09:14:34;10.90;99.90
16785;DHT22;8509;52.178;5.404;2024-02-21T09:17:03;10.90;99.90
16785;DHT22;8509;52.178;5.404;2024-02-21T09:19:28;11.00;99.90
16785;DHT22;8509;52.178;5.404;2024-02-21T09:21:55;10.90;99.90
16785;DHT22;8509;52.178;5.404;2024-02-21T09:24:20;11.00;99.90
16785;DHT22;8509;52.178;5.404;2024-02-21T09:26:47;11.10;99.90
16785;DHT22;8509;52.178;5.404;2024-02-21T09:29:14;11.10;99.90
16785;DHT22;8509;52.178;5.404;2024-02-21T09:31:41;11.10;99.90
16785;DHT22;8509;52.178;5.404;2024-02-21T09:34:07;11.20;99.90
16785;DHT22;8509;52.178;5.404;2024-02-21T09:36:33;11.10;99.90
16785;DHT22;8509;52.178;5.404;2024-02-21T09:38:59;11.10;99.90
16785;DHT22;8509;52.178;5.404;2024-02-21T09:41:27;11.10;99.90
16785;DHT22;8509;52.178;5.404;2024-02-21T09:43:53;11.20;99.90
16785;DHT22;8509;52.178;5.404;2024-02-21T09:46:24;11.20;99.90
16785;DHT22;8509;52.178;5.404;2024-02-21T09:51:17;11.20;99.90
16785;DHT22;8509;52.178;5.404;2024-02-21T09:53:44;11.30;99.90
16785;DHT22;8509;52.178;5.404;2024-02-21T09:56:11;11.40;99.90
16785;DHT22;8509;52.178;5.404;2024-02-21T09:58:38;11.40;99.90
16785;DHT22;8509;52.178;5.404;2024-02-21T10:01:03;11.30;99.90
16785;DHT22;8509;52.178;5.404;2024-02-21T10:03:35;11.40;99.90
16785;DHT22;8509;52.178;5.404;2024-02-21T10:06:00;11.50;99.90
16785;DHT22;8509;52.178;5.404;2024-02-21T10:08:27;11.50;99.90
16785;DHT22;8509;52.178;5.404;2024-02-21T10:10:52;11.50;99.90
16785;DHT22;8509;52.178;5.404;2024-02-21T10:13:29;11.60;99.90
16785;DHT22;8509;52.178;5.404;2024-02-21T10:16:07;11.60;99.90
16785;DHT22;8509;52.178;5.404;2024-02-21T10:18:34;11.60;99.90
16785;DHT22;8509;52.178;5.404;2024-02-21T10:21:06;11.70;99.90
16785;DHT22;8509;52.178;5.404;2024-02-21T10:23:45;11.70;99.90
16785;DHT22;8509;52.178;5.404;2024-02-21T10:26:11;11.70;99.90
16785;DHT22;8509;52.178;5.404;2024-02-21T10:28:40;11.70;99.90
16785;DHT22;8509;52.178;5.404;2024-02-21T10:31:08;11.60;99.90
16785;DHT22;8509;52.178;5.404;2024-02-21T10:33:34;11.60;99.90
16785;DHT22;8509;52.178;5.404;2024-02-21T10:36:10;11.60;99.90
16785;DHT22;8509;52.178;5.404;2024-02-21T10:38:39;11.80;99.90
16785;DHT22;8509;52.178;5.404;2024-02-21T10:41:09;11.80;99.90
16785;DHT22;8509;52.178;5.404;2024-02-21T10:43:41;11.90;99.90
16785;DHT22;8509;52.178;5.404;2024-02-21T10:46:09;12.00;99.90
16785;DHT22;8509;52.178;5.404;2024-02-21T10:48:44;12.20;99.90
16785;DHT22;8509;52.178;5.404;2024-02-21T10:51:20;12.20;99.90
16785;DHT22;8509;52.178;5.404;2024-02-21T10:56:49;12.10;99.90
16785;DHT22;8509;52.178;5.404;2024-02-21T10:59:17;12.00;99.90
16785;DHT22;8509;52.178;5.404;2024-02-21T11:01:43;12.00;99.90
16785;DHT22;8509;52.178;5.404;2024-02-21T11:04:10;11.90;99.90
16785;DHT22;8509;52.178;5.404;2024-02-21T11:06:38;12.00;99.90
16785;DHT22;8509;52.178;5.404;2024-02-21T11:09:07;12.00;99.90
16785;DHT22;8509;52.178;5.404;2024-02-21T11:11:34;12.00;99.90
16785;DHT22;8509;52.178;5.404;2024-02-21T11:14:09;12.10;99.90
16785;DHT22;8509;52.178;5.404;2024-02-21T11:16:39;12.10;99.90
16785;DHT22;8509;52.178;5.404;2024-02-21T11:19:09;12.00;99.90
16785;DHT22;8509;52.178;5.404;2024-02-21T11:21:37;11.90;99.90
16785;DHT22;8509;52.178;5.404;2024-02-21T11:24:09;11.80;99.90
16785;DHT22;8509;52.178;5.404;2024-02-21T11:26:37;11.70;99.90
16785;DHT22;8509;52.178;5.404;2024-02-21T11:29:03;11.60;99.90
16785;DHT22;8509;52.178;5.404;2024-02-21T11:31:43;11.60;99.90
16785;DHT22;8509;52.178;5.404;2024-02-21T11:34:12;11.60;99.90
16785;DHT22;8509;52.178;5.404;2024-02-21T11:36:52;11.40;99.90
16785;DHT22;8509;52.178;5.404;2024-02-21T11:41:44;11.30;99.90
16785;DHT22;8509;52.178;5.404;2024-02-21T11:44:10;11.20;99.90
16785;DHT22;8509;52.178;5.404;2024-02-21T11:46:36;11.20;99.90
16785;DHT22;8509;52.178;5.404;2024-02-21T11:49:02;11.20;99.90
16785;DHT22;8509;52.178;5.404;2024-02-21T11:51:29;11.20;99.90
16785;DHT22;8509;52.178;5.404;2024-02-21T11:53:54;11.20;99.90
16785;DHT22;8509;52.178;5.404;2024-02-21T11:56:20;11.10;99.90
16785;DHT22;8509;52.178;5.404;2024-02-21T11:58:48;11.20;99.90
16785;DHT22;8509;52.178;5.404;2024-02-21T12:01:14;11.20;99.90
16785;DHT22;8509;52.178;5.404;2024-02-21T12:03:40;11.20;99.90
16785;DHT22;8509;52.178;5.404;2024-02-21T12:06:07;11.30;99.90
16785;DHT22;8509;52.178;5.404;2024-02-21T12:08:43;11.50;99.90
16785;DHT22;8509;52.178;5.404;2024-02-21T12:11:18;11.90;99.90
16785;DHT22;8509;52.178;5.404;2024-02-21T12:13:43;12.10;99.90
16785;DHT22;8509;52.178;5.404;2024-02-21T12:16:09;12.20;99.90
16785;DHT22;8509;52.178;5.404;2024-02-21T12:18:35;12.30;99.90
16785;DHT22;8509;52.178;5.404;2024-02-21T12:21:00;12.30;99.90
16785;DHT22;8509;52.178;5.404;2024-02-21T12:23:27;12.40;99.90
16785;DHT22;8509;52.178;5.404;2024-02-21T12:25:53;12.40;99.90
16785;DHT22;8509;52.178;5.404;2024-02-21T12:28:21;12.50;99.90
16785;DHT22;8509;52.178;5.404;2024-02-21T12:30:47;12.60;99.90
16785;DHT22;8509;52.178;5.404;2024-02-21T12:33:13;12.70;99.90
16785;DHT22;8509;52.178;5.404;2024-02-21T12:35:41;12.70;99.90
16785;DHT22;8509;52.178;5.404;2024-02-21T12:38:07;12.70;99.90
16785;DHT22;8509;52.178;5.404;2024-02-21T12:40:33;12.70;99.90
16785;DHT22;8509;52.178;5.404;2024-02-21T12:43:02;12.70;99.90
16785;DHT22;8509;52.178;5.404;2024-02-21T12:45:28;12.70;99.90
16785;DHT22;8509;52.178;5.404;2024-02-21T12:47:54;12.80;99.90
16785;DHT22;8509;52.178;5.404;2024-02-21T12:50:20;12.70;99.90
16785;DHT22;8509;52.178;5.404;2024-02-21T12:52:48;12.60;99.90
16785;DHT22;8509;52.178;5.404;2024-02-21T12:55:15;12.70;99.90
16785;DHT22;8509;52.178;5.404;2024-02-21T12:57:42;12.70;99.90
16785;DHT22;8509;52.178;5.404;2024-02-21T13:00:08;12.60;99.90
16785;DHT22;8509;52.178;5.404;2024-02-21T13:02:35;12.70;99.90
16785;DHT22;8509;52.178;5.404;2024-02-21T13:05:01;12.80;99.90
16785;DHT22;8509;52.178;5.404;2024-02-21T13:07:28;12.80;99.90
16785;DHT22;8509;52.178;5.404;2024-02-21T13:09:54;12.80;99.90
16785;DHT22;8509;52.178;5.404;2024-02-21T13:12:20;12.90;99.90
16785;DHT22;8509;52.178;5.404;2024-02-21T13:14:45;12.90;99.90
16785;DHT22;8509;52.178;5.404;2024-02-21T13:17:11;12.80;99.90
16785;DHT22;8509;52.178;5.404;2024-02-21T13:19:37;12.80;99.90
16785;DHT22;8509;52.178;5.404;2024-02-21T13:22:02;12.90;99.90
16785;DHT22;8509;52.178;5.404;2024-02-21T13:24:30;12.90;99.90
16785;DHT22;8509;52.178;5.404;2024-02-21T13:26:55;12.90;99.90
16785;DHT22;8509;52.178;5.404;2024-02-21T13:29:21;12.90;99.90
16785;DHT22;8509;52.178;5.404;2024-02-21T13:31:47;12.90;99.90
16785;DHT22;8509;52.178;5.404;2024-02-21T13:34:13;12.70;99.90
16785;DHT22;8509;52.178;5.404;2024-02-21T13:36:39;12.60;99.90
16785;DHT22;8509;52.178;5.404;2024-02-21T13:39:07;12.40;99.90
16785;DHT22;8509;52.178;5.404;2024-02-21T13:41:34;12.30;99.90
16785;DHT22;8509;52.178;5.404;2024-02-21T13:44:00;12.20;99.90
16785;DHT22;8509;52.178;5.404;2024-02-21T13:46:26;12.20;99.90
16785;DHT22;8509;52.178;5.404;2024-02-21T13:49:00;12.20;99.90
16785;DHT22;8509;52.178;5.404;2024-02-21T13:51:27;12.00;99.90
16785;DHT22;8509;52.178;5.404;2024-02-21T13:53:53;12.00;99.90
16785;DHT22;8509;52.178;5.404;2024-02-21T13:56:19;12.00;99.90
16785;DHT22;8509;52.178;5.404;2024-02-21T13:58:44;12.00;99.90
16785;DHT22;8509;52.178;5.404;2024-02-21T14:01:10;12.10;99.90
16785;DHT22;8509;52.178;5.404;2024-02-21T14:03:36;12.10;99.90
16785;DHT22;8509;52.178;5.404;2024-02-21T14:06:01;12.10;99.90
16785;DHT22;8509;52.178;5.404;2024-02-21T14:08:27;12.10;99.90
16785;DHT22;8509;52.178;5.404;2024-02-21T14:10:56;12.00;99.90
16785;DHT22;8509;52.178;5.404;2024-02-21T14:13:24;11.90;99.90
16785;DHT22;8509;52.178;5.404;2024-02-21T14:15:50;11.90;99.90
16785;DHT22;8509;52.178;5.404;2024-02-21T14:18:16;11.90;99.90
16785;DHT22;8509;52.178;5.404;2024-02-21T14:20:42;11.90;99.90
16785;DHT22;8509;52.178;5.404;2024-02-21T14:23:08;11.90;99.90
16785;DHT22;8509;52.178;5.404;2024-02-21T14:25:33;11.80;99.90
16785;DHT22;8509;52.178;5.404;2024-02-21T14:27:59;11.90;99.90
16785;DHT22;8509;52.178;5.404;2024-02-21T14:30:28;11.80;99.90
16785;DHT22;8509;52.178;5.404;2024-02-21T14:32:53;11.90;99.90
16785;DHT22;8509;52.178;5.404;2024-02-21T14:35:20;11.90;99.90
16785;DHT22;8509;52.178;5.404;2024-02-21T14:37:46;11.90;99.90
16785;DHT22;8509;52.178;5.404;2024-02-21T14:40:14;11.90;99.90
16785;DHT22;8509;52.178;5.404;2024-02-21T14:42:40;12.00;99.90
16785;DHT22;8509;52.178;5.404;2024-02-21T14:45:06;12.00;99.90
16785;DHT22;8509;52.178;5.404;2024-02-21T14:47:32;12.00;99.90
16785;DHT22;8509;52.178;5.404;2024-02-21T14:49:58;12.00;99.90
16785;DHT22;8509;52.178;5.404;2024-02-21T14:52:24;12.00;99.90
16785;DHT22;8509;52.178;5.404;2024-02-21T14:54:55;11.90;99.90
16785;DHT22;8509;52.178;5.404;2024-02-21T14:57:21;11.90;99.90
16785;DHT22;8509;52.178;5.404;2024-02-21T14:59:47;11.80;99.90
16785;DHT22;8509;52.178;5.404;2024-02-21T15:02:22;11.70;99.90
16785;DHT22;8509;52.178;5.404;2024-02-21T15:04:48;11.60;99.90
16785;DHT22;8509;52.178;5.404;2024-02-21T15:07:14;11.50;99.90
16785;DHT22;8509;52.178;5.404;2024-02-21T15:09:40;11.40;99.90
16785;DHT22;8509;52.178;5.404;2024-02-21T15:12:05;11.30;99.90
16785;DHT22;8509;52.178;5.404;2024-02-21T15:14:31;11.20;99.90
16785;DHT22;8509;52.178;5.404;2024-02-21T15:16:57;11.10;99.90
16785;DHT22;8509;52.178;5.404;2024-02-21T15:19:23;10.90;99.90
16785;DHT22;8509;52.178;5.404;2024-02-21T15:21:49;10.90;99.90
16785;DHT22;8509;52.178;5.404;2024-02-21T15:24:15;10.80;99.90
16785;DHT22;8509;52.178;5.404;2024-02-21T15:26:42;10.70;99.90
16785;DHT22;8509;52.178;5.404;2024-02-21T15:29:08;10.60;99.90
16785;DHT22;8509;52.178;5.404;2024-02-21T15:31:34;10.60;99.90
16785;DHT22;8509;52.178;5.404;2024-02-21T15:34:00;10.50;99.90
16785;DHT22;8509;52.178;5.404;2024-02-21T15:36:25;10.50;99.90
16785;DHT22;8509;52.178;5.404;2024-02-21T15:38:53;10.40;99.90
16785;DHT22;8509;52.178;5.404;2024-02-21T15:41:20;10.30;99.90
16785;DHT22;8509;52.178;5.404;2024-02-21T15:43:46;10.40;99.90
16785;DHT22;8509;52.178;5.404;2024-02-21T15:46:12;10.50;99.90
16785;DHT22;8509;52.178;5.404;2024-02-21T15:48:38;10.30;99.90
16785;DHT22;8509;52.178;5.404;2024-02-21T15:51:06;10.30;99.90
16785;DHT22;8509;52.178;5.404;2024-02-21T15:53:31;10.20;99.90
16785;DHT22;8509;52.178;5.404;2024-02-21T15:55:57;10.20;99.90
16785;DHT22;8509;52.178;5.404;2024-02-21T15:58:23;10.20;99.90